createdAt,value
2019-06-15T00:00:40.661Z,6.80
2019-06-15T00:01:40.551Z,7.70
2019-06-15T00:02:40.472Z,9.60
2019-06-15T00:03:40.476Z,6.50
2019-06-15T00:04:40.325Z,7.60
2019-06-15T00:05:40.243Z,6.90
2019-06-15T00:06:40.297Z,6.20
2019-06-15T00:07:40.080Z,5.80
2019-06-15T00:08:39.995Z,6.50
2019-06-15T00:09:40.139Z,7.90
2019-06-15T00:10:39.836Z,6.50
2019-06-15T00:11:39.918Z,6.50
2019-06-15T00:12:39.677Z,8.50
2019-06-15T00:13:39.726Z,9.40
2019-06-15T00:14:39.524Z,7.60
2019-06-15T00:15:39.435Z,10.10
2019-06-15T00:16:39.538Z,7.50
2019-06-15T00:17:39.273Z,7.60
2019-06-15T00:18:39.193Z,9.10
2019-06-15T00:19:39.184Z,7.50
2019-06-15T00:20:39.040Z,11.00
2019-06-15T00:21:39.164Z,10.50
2019-06-15T00:22:38.882Z,8.80
2019-06-15T00:23:38.974Z,9.30
2019-06-15T00:24:38.726Z,8.20
2019-06-15T00:25:38.782Z,7.80
2019-06-15T00:26:38.572Z,8.30
2019-06-15T00:27:38.596Z,10.10
2019-06-15T00:28:38.401Z,8.30
2019-06-15T00:29:38.359Z,9.50
2019-06-15T00:30:38.408Z,9.00
2019-06-15T00:31:38.152Z,10.50
2019-06-15T00:32:38.070Z,10.60
2019-06-15T00:33:38.023Z,7.70
2019-06-15T00:34:37.930Z,8.90
2019-06-15T00:35:37.832Z,10.20
2019-06-15T00:36:37.828Z,8.80
2019-06-15T00:37:37.682Z,7.90
2019-06-15T00:38:37.596Z,10.30
2019-06-15T00:39:37.695Z,8.40
2019-06-15T00:40:37.434Z,9.00
2019-06-15T00:41:37.361Z,9.10
2019-06-15T00:42:37.459Z,8.80
2019-06-15T00:43:37.187Z,10.80
2019-06-15T00:44:37.122Z,8.90
2019-06-15T00:45:37.096Z,9.50
2019-06-15T00:46:36.960Z,9.90
2019-06-15T00:47:37.085Z,11.00
2019-06-15T00:48:36.808Z,8.30
2019-06-15T00:49:36.731Z,12.20
2019-06-15T00:50:36.690Z,8.90
2019-06-15T00:51:36.555Z,8.40
2019-06-15T00:52:36.464Z,10.80
2019-06-15T00:53:36.508Z,8.40
2019-06-15T00:54:49.752Z,11.40
2019-06-15T00:55:36.234Z,11.40
2019-06-15T00:56:36.326Z,10.40
2019-06-15T00:57:36.073Z,9.10
2019-06-15T00:58:35.985Z,8.70
2019-06-15T00:59:35.968Z,9.00
2019-06-15T01:00:35.830Z,9.40
2019-06-15T01:01:35.747Z,9.30
2019-06-15T01:02:35.745Z,8.70
2019-06-15T01:03:35.594Z,9.00
2019-06-15T01:04:36.570Z,12.90
2019-06-15T01:05:35.566Z,8.80
2019-06-15T01:06:35.355Z,7.90
2019-06-15T01:07:35.282Z,8.50
2019-06-15T01:08:35.379Z,8.40
2019-06-15T01:09:35.123Z,10.10
2019-06-15T01:10:35.031Z,9.50
2019-06-15T01:11:34.944Z,10.70
2019-06-15T01:12:34.998Z,10.00
2019-06-15T01:13:34.784Z,10.60
2019-06-15T01:14:34.722Z,9.40
2019-06-15T01:15:34.810Z,10.30
2019-06-15T01:16:34.545Z,10.00
2019-06-15T01:17:34.626Z,9.80
2019-06-15T01:18:34.391Z,11.50
2019-06-15T01:19:34.486Z,9.30
2019-06-15T01:20:34.282Z,10.30
2019-06-15T01:21:34.242Z,12.50
2019-06-15T01:22:34.062Z,11.90
2019-06-15T01:23:34.045Z,10.20
2019-06-15T01:24:33.922Z,10.90
2019-06-15T01:25:33.851Z,9.70
2019-06-15T01:26:33.751Z,10.20
2019-06-15T01:27:34.260Z,13.10
2019-06-15T01:28:33.590Z,11.50
2019-06-15T01:29:33.706Z,9.40
2019-06-15T01:30:33.425Z,10.10
2019-06-15T01:31:33.342Z,9.90
2019-06-15T01:32:33.288Z,12.10
2019-06-15T01:33:33.184Z,10.30
2019-06-15T01:34:33.115Z,11.60
2019-06-15T01:35:33.099Z,11.50
2019-06-15T01:36:32.939Z,11.70
2019-06-15T01:37:32.911Z,11.60
2019-06-15T01:38:32.775Z,13.20
2019-06-15T01:39:32.714Z,12.30
2019-06-15T01:40:32.723Z,11.40
2019-06-15T01:41:32.543Z,11.40
2019-06-15T01:42:32.457Z,12.50
2019-06-15T01:43:32.547Z,12.90
2019-06-15T01:44:32.309Z,12.60
2019-06-15T01:45:32.232Z,13.50
2019-06-15T01:46:32.355Z,13.90
2019-06-15T01:47:32.060Z,13.10
2019-06-15T01:48:33.188Z,11.60
2019-06-15T01:49:31.913Z,12.20
2019-06-15T01:50:31.972Z,12.10
2019-06-15T01:51:31.737Z,12.40
2019-06-15T01:52:31.781Z,12.80
2019-06-15T01:53:31.582Z,14.00
2019-06-15T01:54:31.619Z,14.60
2019-06-15T01:55:31.413Z,13.00
2019-06-15T01:56:31.339Z,12.20
2019-06-15T01:57:31.407Z,11.90
2019-06-15T01:58:31.180Z,15.20
2019-06-15T01:59:31.115Z,14.70
2019-06-15T02:00:31.217Z,12.70
2019-06-15T02:01:30.945Z,13.20
2019-06-15T02:02:30.855Z,13.70
2019-06-15T02:03:30.827Z,16.20
2019-06-15T02:04:31.140Z,13.60
2019-06-15T02:05:30.614Z,13.10
2019-06-15T02:06:30.682Z,13.50
2019-06-15T02:07:30.475Z,13.20
2019-06-15T02:08:30.425Z,12.90
2019-06-15T02:09:30.498Z,13.40
2019-06-15T02:10:30.238Z,14.00
2019-06-15T02:11:30.155Z,13.60
2019-06-15T02:12:30.278Z,13.70
2019-06-15T02:13:29.976Z,13.20
2019-06-15T02:14:29.891Z,15.30
2019-06-15T02:15:29.827Z,13.30
2019-06-15T02:16:29.891Z,13.10
2019-06-15T02:17:29.654Z,14.50
2019-06-15T02:18:29.579Z,13.90
2019-06-15T02:19:29.494Z,12.50
2019-06-15T02:20:29.437Z,13.40
2019-06-15T02:21:29.337Z,12.70
2019-06-15T02:22:29.315Z,13.20
2019-06-15T02:23:29.177Z,12.60
2019-06-15T02:24:29.129Z,13.10
2019-06-15T02:25:35.839Z,12.60
2019-06-15T02:26:29.144Z,12.70
2019-06-15T02:27:28.850Z,13.20
2019-06-15T02:28:28.946Z,13.30
2019-06-15T02:29:28.696Z,12.50
2019-06-15T02:30:29.818Z,12.80
2019-06-15T02:31:28.538Z,15.30
2019-06-15T02:32:28.562Z,12.90
2019-06-15T02:33:28.371Z,12.70
2019-06-15T02:34:28.382Z,12.80
2019-06-15T02:35:28.227Z,14.10
2019-06-15T02:36:28.142Z,13.70
2019-06-15T02:37:28.054Z,13.00
2019-06-15T02:38:27.988Z,12.70
2019-06-15T02:39:27.893Z,12.60
2019-06-15T02:40:28.036Z,12.50
2019-06-15T02:41:27.731Z,12.50
2019-06-15T02:42:27.817Z,12.20
2019-06-15T02:43:27.576Z,12.50
2019-06-15T02:44:27.625Z,13.80
2019-06-15T02:45:27.423Z,13.20
2019-06-15T02:46:27.335Z,11.80
2019-06-15T02:47:27.432Z,12.60
2019-06-15T02:48:27.188Z,13.60
2019-06-15T02:49:27.096Z,13.00
2019-06-15T02:50:27.078Z,12.90
2019-06-15T02:51:26.934Z,12.30
2019-06-15T02:52:26.857Z,14.50
2019-06-15T02:53:26.859Z,12.40
2019-06-15T02:54:26.693Z,12.90
2019-06-15T02:55:26.636Z,12.60
2019-06-15T02:56:26.676Z,13.00
2019-06-15T02:57:26.457Z,12.30
2019-06-15T02:58:26.391Z,12.50
2019-06-15T02:59:26.490Z,12.60
2019-06-15T03:00:26.234Z,12.00
2019-06-15T03:01:26.141Z,12.50
2019-06-15T03:02:26.099Z,13.00
2019-06-15T03:03:25.971Z,13.30
2019-06-15T03:04:25.888Z,12.70
2019-06-15T03:05:25.959Z,12.50
2019-06-15T03:06:25.747Z,13.40
2019-06-15T03:07:25.742Z,13.20
2019-06-15T03:08:25.585Z,12.90
2019-06-15T03:09:25.534Z,13.20
2019-06-15T03:10:25.420Z,12.30
2019-06-15T03:11:25.553Z,14.00
2019-06-15T03:12:25.251Z,12.70
2019-06-15T03:13:25.352Z,12.60
2019-06-15T03:14:25.097Z,12.90
2019-06-15T03:15:25.193Z,12.70
2019-06-15T03:16:24.932Z,13.10
2019-06-15T03:17:24.968Z,13.30
2019-06-15T03:18:24.770Z,16.50
2019-06-15T03:19:24.777Z,14.70
2019-06-15T03:20:24.628Z,13.50
2019-06-15T03:21:24.588Z,13.70
2019-06-15T03:22:24.446Z,13.90
2019-06-15T03:23:24.413Z,13.50
2019-06-15T03:24:24.294Z,13.40
2019-06-15T03:25:24.443Z,13.40
2019-06-15T03:26:24.127Z,13.80
2019-06-15T03:27:24.220Z,14.60
2019-06-15T03:28:23.967Z,14.20
2019-06-15T03:29:24.025Z,14.60
2019-06-15T03:30:23.828Z,14.50
2019-06-15T03:31:23.732Z,14.40
2019-06-15T03:32:23.841Z,15.40
2019-06-15T03:33:23.564Z,14.20
2019-06-15T03:34:23.489Z,14.70
2019-06-15T03:35:23.485Z,14.20
2019-06-15T03:36:23.337Z,14.70
2019-06-15T03:37:23.252Z,14.30
2019-06-15T03:38:23.267Z,13.70
2019-06-15T03:39:23.092Z,14.90
2019-06-15T03:40:23.027Z,14.00
2019-06-15T03:41:23.081Z,14.40
2019-06-15T03:42:22.847Z,14.00
2019-06-15T03:43:22.892Z,15.00
2019-06-15T03:44:22.686Z,15.30
2019-06-15T03:45:22.731Z,14.20
2019-06-15T03:46:22.534Z,14.60
2019-06-15T03:47:22.454Z,14.60
2019-06-15T03:48:22.369Z,16.00
2019-06-15T03:49:22.314Z,15.70
2019-06-15T03:50:22.224Z,14.40
2019-06-15T03:51:22.133Z,15.00
2019-06-15T03:52:22.044Z,14.40
2019-06-15T03:53:22.135Z,15.40
2019-06-15T03:54:21.890Z,13.80
2019-06-15T03:55:21.827Z,14.60
2019-06-15T03:56:22.377Z,14.10
2019-06-15T03:57:21.663Z,15.30
2019-06-15T03:58:21.574Z,15.00
2019-06-15T03:59:21.562Z,15.60
2019-06-15T04:00:21.420Z,14.70
2019-06-15T04:01:21.344Z,14.80
2019-06-15T04:02:21.374Z,14.60
2019-06-15T04:03:21.168Z,16.50
2019-06-15T04:04:21.087Z,19.70
2019-06-15T04:05:21.240Z,29.00
2019-06-15T04:06:20.941Z,27.40
2019-06-15T04:07:21.003Z,39.90
2019-06-15T04:08:20.767Z,43.30
2019-06-15T04:09:20.813Z,48.20
2019-06-15T04:10:20.607Z,48.90
2019-06-15T04:11:20.546Z,57.10
2019-06-15T04:12:20.627Z,57.60
2019-06-15T04:13:20.368Z,56.90
2019-06-15T04:14:20.283Z,55.40
2019-06-15T04:15:20.234Z,56.80
2019-06-15T04:16:20.140Z,57.70
2019-06-15T04:17:20.274Z,58.80
2019-06-15T04:18:19.962Z,59.20
2019-06-15T04:19:19.895Z,59.80
2019-06-15T04:20:19.802Z,61.50
2019-06-15T04:21:19.751Z,62.30
2019-06-15T04:22:19.711Z,61.20
2019-06-15T04:23:19.570Z,63.10
2019-06-15T04:24:19.487Z,63.50
2019-06-15T04:25:19.407Z,64.30
2019-06-15T04:26:19.386Z,63.80
2019-06-15T04:27:19.257Z,63.60
2019-06-15T04:28:19.158Z,60.60
2019-06-15T04:29:19.098Z,55.60
2019-06-15T04:30:19.001Z,52.30
2019-06-15T04:31:19.650Z,49.90
2019-06-15T04:32:18.855Z,48.30
2019-06-15T04:33:18.766Z,44.00
2019-06-15T04:34:18.680Z,41.90
2019-06-15T04:35:18.616Z,41.90
2019-06-15T04:36:18.546Z,40.90
2019-06-15T04:37:18.441Z,38.40
2019-06-15T04:38:18.382Z,35.70
2019-06-15T04:39:18.284Z,33.40
2019-06-15T04:40:18.207Z,30.80
2019-06-15T04:41:18.140Z,30.40
2019-06-15T04:42:18.062Z,29.30
2019-06-15T04:43:17.969Z,28.40
2019-06-15T04:44:17.879Z,29.20
2019-06-15T04:45:17.804Z,28.70
2019-06-15T04:46:17.741Z,28.10
2019-06-15T04:47:17.639Z,27.30
2019-06-15T04:48:17.573Z,28.30
2019-06-15T04:49:17.485Z,27.20
2019-06-15T04:50:17.403Z,26.20
2019-06-15T04:51:17.345Z,27.80
2019-06-15T04:52:17.244Z,28.40
2019-06-15T04:53:17.158Z,27.30
2019-06-15T04:54:17.117Z,28.40
2019-06-15T04:55:17.013Z,28.90
2019-06-15T04:56:16.943Z,28.40
2019-06-15T04:57:16.929Z,29.30
2019-06-15T04:58:16.761Z,26.80
2019-06-15T04:59:16.699Z,27.00
2019-06-15T05:00:16.608Z,26.00
2019-06-15T05:01:16.587Z,26.40
2019-06-15T05:02:16.447Z,24.80
2019-06-15T05:03:16.367Z,24.10
2019-06-15T05:04:16.674Z,23.80
2019-06-15T05:05:16.212Z,25.80
2019-06-15T05:06:16.132Z,23.60
2019-06-15T05:07:16.039Z,23.80
2019-06-15T05:08:15.968Z,24.00
2019-06-15T05:09:15.878Z,24.10
2019-06-15T05:10:15.799Z,24.70
2019-06-15T05:11:15.737Z,25.20
2019-06-15T05:12:15.641Z,24.60
2019-06-15T05:13:15.562Z,25.40
2019-06-15T05:14:15.484Z,25.80
2019-06-15T05:15:15.408Z,26.10
2019-06-15T05:16:15.328Z,25.20
2019-06-15T05:17:15.241Z,26.40
2019-06-15T05:18:15.169Z,26.50
2019-06-15T05:19:15.075Z,26.50
2019-06-15T05:20:15.005Z,26.60
2019-06-15T05:21:14.932Z,25.60
2019-06-15T05:22:14.848Z,26.40
2019-06-15T05:23:14.759Z,25.30
2019-06-15T05:24:14.677Z,26.00
2019-06-15T05:25:14.607Z,26.20
2019-06-15T05:26:14.544Z,26.10
2019-06-15T05:27:14.437Z,25.90
2019-06-15T05:28:14.358Z,26.50
2019-06-15T05:29:14.273Z,25.50
2019-06-15T05:30:14.208Z,26.20
2019-06-15T05:31:14.126Z,27.10
2019-06-15T05:32:14.032Z,28.10
2019-06-15T05:33:13.955Z,27.30
2019-06-15T05:34:13.881Z,27.60
2019-06-15T05:35:13.797Z,26.90
2019-06-15T05:36:13.765Z,27.00
2019-06-15T05:37:13.646Z,26.50
2019-06-15T05:38:13.563Z,26.30
2019-06-15T05:39:13.552Z,28.20
2019-06-15T05:40:13.388Z,27.20
2019-06-15T05:41:15.736Z,25.70
2019-06-15T05:42:13.267Z,25.70
2019-06-15T05:43:13.158Z,26.30
2019-06-15T05:44:14.096Z,25.70
2019-06-15T05:45:12.997Z,25.40
2019-06-15T05:46:13.021Z,26.00
2019-06-15T05:47:13.160Z,25.60
2019-06-15T05:48:12.793Z,26.30
2019-06-15T05:49:12.676Z,25.40
2019-06-15T05:50:13.626Z,25.10
2019-06-15T05:51:12.519Z,24.90
2019-06-15T05:52:12.510Z,24.10
2019-06-15T05:53:12.350Z,23.70
2019-06-15T05:54:13.666Z,23.20
2019-06-15T05:55:12.187Z,23.00
2019-06-15T05:56:12.162Z,23.80
2019-06-15T05:57:21.131Z,23.80
2019-06-15T05:58:12.040Z,24.20
2019-06-15T05:59:11.876Z,23.30
2019-06-15T06:00:11.907Z,23.40
2019-06-15T06:01:11.720Z,22.90
2019-06-15T06:02:14.864Z,22.20
2019-06-15T06:03:11.546Z,22.80
2019-06-15T06:04:11.571Z,22.90
2019-06-15T06:05:11.386Z,22.10
2019-06-15T06:06:11.413Z,22.70
2019-06-15T06:07:11.235Z,22.50
2019-06-15T06:08:17.858Z,22.50
2019-06-15T06:09:11.077Z,22.20
2019-06-15T06:10:11.267Z,22.00
2019-06-15T06:11:10.910Z,20.70
2019-06-15T06:12:10.837Z,20.90
2019-06-15T06:13:10.814Z,20.60
2019-06-15T06:14:10.664Z,21.50
2019-06-15T06:15:10.604Z,20.70
2019-06-15T06:16:10.532Z,19.50
2019-06-15T06:17:10.443Z,19.20
2019-06-15T06:18:10.355Z,18.50
2019-06-15T06:19:10.361Z,18.10
2019-06-15T06:20:10.195Z,18.60
2019-06-15T06:21:10.111Z,17.40
2019-06-15T06:22:10.046Z,17.60
2019-06-15T06:23:09.967Z,17.00
2019-06-15T06:24:09.878Z,17.60
2019-06-15T06:25:09.789Z,16.40
2019-06-15T06:26:09.712Z,16.10
2019-06-15T06:27:11.670Z,16.40
2019-06-15T06:28:09.544Z,15.80
2019-06-15T06:29:09.492Z,15.80
2019-06-15T06:30:09.389Z,16.60
2019-06-15T06:31:09.405Z,16.50
2019-06-15T06:32:09.262Z,15.10
2019-06-15T06:33:15.870Z,15.00
2019-06-15T06:34:09.090Z,16.00
2019-06-15T06:35:09.030Z,15.60
2019-06-15T06:36:08.914Z,15.80
2019-06-15T06:37:08.840Z,16.00
2019-06-15T06:38:08.859Z,15.80
2019-06-15T06:39:08.668Z,15.70
2019-06-15T06:40:08.596Z,15.30
2019-06-15T06:41:08.555Z,15.70
2019-06-15T06:42:08.444Z,14.70
2019-06-15T06:43:08.357Z,14.50
2019-06-15T06:44:08.266Z,14.40
2019-06-15T06:45:08.269Z,14.00
2019-06-15T06:46:08.125Z,14.20
2019-06-15T06:47:08.123Z,13.40
2019-06-15T06:48:07.978Z,13.20
2019-06-15T06:49:07.888Z,13.50
2019-06-15T06:50:07.790Z,12.60
2019-06-15T06:51:07.803Z,12.60
2019-06-15T06:52:07.647Z,12.20
2019-06-15T06:53:07.568Z,11.00
2019-06-15T06:54:07.514Z,11.90
2019-06-15T06:55:07.396Z,9.80
2019-06-15T06:56:07.309Z,11.90
2019-06-15T06:57:07.271Z,9.10
2019-06-15T06:58:07.148Z,9.90
2019-06-15T06:59:07.080Z,8.70
2019-06-15T07:00:07.084Z,9.40
2019-06-15T07:01:06.923Z,9.40
2019-06-15T07:02:07.198Z,9.40
2019-06-15T07:03:06.759Z,8.50
2019-06-15T07:04:06.675Z,9.10
2019-06-15T07:05:06.676Z,8.70
2019-06-15T07:06:06.524Z,8.60
2019-06-15T07:07:06.461Z,9.00
2019-06-15T07:08:06.358Z,10.90
2019-06-15T07:09:06.391Z,9.30
2019-06-15T07:10:06.202Z,9.30
2019-06-15T07:11:06.662Z,9.20
2019-06-15T07:12:06.062Z,8.50
2019-06-15T07:13:06.009Z,9.60
2019-06-15T07:14:05.899Z,9.20
2019-06-15T07:15:05.937Z,9.40
2019-06-15T07:16:05.731Z,9.10
2019-06-15T07:17:05.669Z,8.50
2019-06-15T07:18:05.630Z,9.10
2019-06-15T07:19:05.502Z,9.20
2019-06-15T07:20:13.294Z,8.30
2019-06-15T07:21:13.327Z,10.20
2019-06-15T07:22:05.394Z,8.90
2019-06-15T07:23:05.184Z,9.00
2019-06-15T07:24:05.106Z,9.30
2019-06-15T07:25:05.074Z,9.00
2019-06-15T07:26:04.948Z,9.20
2019-06-15T07:27:04.883Z,9.60
2019-06-15T07:28:08.342Z,9.90
2019-06-15T07:29:04.720Z,9.70
2019-06-15T07:30:04.638Z,9.90
2019-06-15T07:31:04.601Z,9.90
2019-06-15T07:32:04.517Z,9.90
2019-06-15T07:33:04.411Z,9.00
2019-06-15T07:34:04.337Z,8.10
2019-06-15T07:35:04.251Z,9.00
2019-06-15T07:36:04.175Z,8.70
2019-06-15T07:37:04.165Z,7.70
2019-06-15T07:38:04.013Z,7.50
2019-06-15T07:39:04.037Z,8.90
2019-06-15T07:40:03.865Z,7.30
2019-06-15T07:41:03.848Z,6.80
2019-06-15T07:42:03.736Z,6.60
2019-06-15T07:43:03.635Z,6.10
2019-06-15T07:44:03.707Z,6.40
2019-06-15T07:45:03.500Z,8.20
2019-06-15T07:46:03.431Z,8.10
2019-06-15T07:47:09.479Z,7.60
2019-06-15T07:48:03.267Z,7.20
2019-06-15T07:49:04.975Z,6.90
2019-06-15T07:50:03.194Z,5.80
2019-06-15T07:51:03.032Z,6.40
2019-06-15T07:52:02.977Z,7.30
2019-06-15T07:53:09.871Z,8.10
2019-06-15T07:54:02.802Z,6.50
2019-06-15T07:55:02.816Z,5.80
2019-06-15T07:56:02.653Z,6.00
2019-06-15T07:57:02.667Z,6.40
2019-06-15T07:58:02.488Z,6.20
2019-06-15T07:59:02.435Z,6.40
2019-06-15T08:00:02.332Z,7.10
2019-06-15T08:01:02.377Z,7.50
2019-06-15T08:02:02.191Z,5.90
2019-06-15T08:03:02.154Z,7.30
2019-06-15T08:04:02.021Z,6.90
2019-06-15T08:05:01.960Z,6.00
2019-06-15T08:06:01.862Z,5.60
2019-06-15T08:07:01.910Z,5.50
2019-06-15T08:08:01.708Z,6.50
2019-06-15T08:09:01.635Z,6.20
2019-06-15T08:10:01.568Z,5.00
2019-06-15T08:11:01.481Z,5.80
2019-06-15T08:12:01.429Z,5.70
2019-06-15T08:13:03.363Z,3.50
2019-06-15T08:14:01.242Z,3.20
2019-06-15T08:15:01.166Z,4.70
2019-06-15T08:16:01.120Z,3.40
2019-06-15T08:17:01.023Z,3.10
2019-06-15T08:18:00.927Z,4.50
2019-06-15T08:19:02.889Z,4.60
2019-06-15T08:20:00.769Z,3.50
2019-06-15T08:21:00.748Z,3.40
2019-06-15T08:22:00.721Z,4.00
2019-06-15T08:23:00.538Z,3.70
2019-06-15T08:24:00.572Z,4.70
2019-06-15T08:25:00.380Z,3.80
2019-06-15T08:26:00.296Z,4.30
2019-06-15T08:27:00.307Z,4.80
2019-06-15T08:28:00.135Z,3.70
2019-06-15T08:29:00.065Z,4.40
2019-06-15T08:29:59.976Z,3.10
2019-06-15T08:31:01.447Z,4.30
2019-06-15T08:31:59.823Z,3.60
2019-06-15T08:32:59.764Z,4.80
2019-06-15T08:33:59.714Z,4.00
2019-06-15T08:34:59.588Z,3.70
2019-06-15T08:36:02.247Z,3.60
2019-06-15T08:36:59.432Z,4.00
2019-06-15T08:37:59.365Z,3.10
2019-06-15T08:38:59.275Z,2.50
2019-06-15T08:39:59.189Z,2.60
2019-06-15T08:40:59.109Z,4.80
2019-06-15T08:41:59.043Z,2.00
2019-06-15T08:42:58.968Z,2.40
2019-06-15T08:43:58.873Z,2.10
2019-06-15T08:44:58.802Z,2.40
2019-06-15T08:45:58.713Z,3.10
2019-06-15T08:46:59.487Z,3.60
2019-06-15T08:47:58.566Z,3.10
2019-06-15T08:48:58.488Z,2.60
2019-06-15T08:49:58.391Z,2.10
2019-06-15T08:50:58.309Z,2.40
2019-06-15T08:51:58.247Z,3.40
2019-06-15T08:52:58.180Z,2.10
2019-06-15T08:53:58.085Z,2.80
2019-06-15T08:54:58.008Z,2.50
2019-06-15T08:55:57.936Z,2.20
2019-06-15T08:56:57.836Z,2.60
2019-06-15T08:57:57.807Z,2.50
2019-06-15T08:58:57.678Z,3.50
2019-06-15T08:59:57.604Z,3.00
2019-06-15T09:00:58.006Z,2.70
2019-06-15T09:01:57.440Z,1.90
2019-06-15T09:02:57.373Z,2.10
2019-06-15T09:03:57.286Z,3.00
2019-06-15T09:04:57.209Z,1.80
2019-06-15T09:05:57.126Z,2.20
2019-06-15T09:06:57.044Z,2.00
2019-06-15T09:07:56.980Z,2.20
2019-06-15T09:08:56.891Z,2.80
2019-06-15T09:09:56.801Z,2.00
2019-06-15T09:10:56.723Z,2.10
2019-06-15T09:11:56.663Z,2.60
2019-06-15T09:12:56.573Z,3.30
2019-06-15T09:13:56.504Z,2.90
2019-06-15T09:14:56.405Z,3.00
2019-06-15T09:15:56.330Z,3.60
2019-06-15T09:16:56.247Z,2.90
2019-06-15T09:17:56.182Z,3.00
2019-06-15T09:18:57.555Z,3.60
2019-06-15T09:19:56.009Z,3.00
2019-06-15T09:20:55.933Z,2.60
2019-06-15T09:21:55.857Z,3.60
2019-06-15T09:22:55.780Z,3.70
2019-06-15T09:23:55.684Z,4.00
2019-06-15T09:24:55.628Z,4.40
2019-06-15T09:25:55.532Z,4.30
2019-06-15T09:26:55.447Z,4.20
2019-06-15T09:27:55.387Z,5.60
2019-06-15T09:29:07.737Z,4.60
2019-06-15T09:29:55.210Z,4.20
2019-06-15T09:30:55.156Z,4.00
2019-06-15T09:31:55.049Z,3.90
2019-06-15T09:32:54.990Z,3.80
2019-06-15T09:33:54.893Z,3.50
2019-06-15T09:34:54.814Z,3.70
2019-06-15T09:35:54.730Z,4.10
2019-06-15T09:36:54.668Z,3.40
2019-06-15T09:37:54.598Z,3.70
2019-06-15T09:38:54.500Z,3.30
2019-06-15T09:39:54.423Z,4.20
2019-06-15T09:40:54.334Z,3.90
2019-06-15T09:41:54.266Z,4.20
2019-06-15T09:42:54.198Z,4.60
2019-06-15T09:43:54.097Z,4.50
2019-06-15T09:44:54.021Z,4.30
2019-06-15T09:45:53.943Z,4.20
2019-06-15T09:46:53.872Z,4.50
2019-06-15T09:47:53.797Z,7.30
2019-06-15T09:48:53.724Z,4.90
2019-06-15T09:49:53.627Z,4.70
2019-06-15T09:50:53.647Z,4.60
2019-06-15T09:51:53.473Z,4.90
2019-06-15T09:52:53.415Z,4.90
2019-06-15T09:53:53.328Z,4.80
2019-06-15T09:54:53.269Z,5.50
2019-06-15T09:55:53.161Z,5.50
2019-06-15T09:56:53.103Z,5.10
2019-06-15T09:57:53.027Z,5.60
2019-06-15T09:58:52.933Z,5.30
2019-06-15T09:59:52.873Z,5.60
2019-06-15T10:00:52.789Z,5.30
2019-06-15T10:01:53.131Z,5.20
2019-06-15T10:02:52.652Z,5.10
2019-06-15T10:03:52.563Z,4.80
2019-06-15T10:04:52.496Z,4.70
2019-06-15T10:05:52.417Z,4.80
2019-06-15T10:06:52.338Z,5.00
2019-06-15T10:07:52.285Z,5.20
2019-06-15T10:08:52.206Z,5.40
2019-06-15T10:09:52.126Z,5.00
2019-06-15T10:10:52.045Z,5.00
2019-06-15T10:11:51.985Z,6.50
2019-06-15T10:12:51.917Z,5.40
2019-06-15T10:13:51.837Z,5.70
2019-06-15T10:14:51.757Z,4.80
2019-06-15T10:15:51.699Z,5.00
2019-06-15T10:16:51.625Z,5.70
2019-06-15T10:17:51.957Z,4.60
2019-06-15T10:18:51.480Z,6.10
2019-06-15T10:19:51.421Z,5.00
2019-06-15T10:20:51.342Z,5.50
2019-06-15T10:21:51.280Z,4.50
2019-06-15T10:22:51.225Z,4.70
2019-06-15T10:23:51.146Z,4.70
2019-06-15T10:24:51.071Z,3.50
2019-06-15T10:25:54.088Z,3.70
2019-06-15T10:26:50.935Z,3.70
2019-06-15T10:27:50.877Z,4.40
2019-06-15T10:28:50.815Z,3.40
2019-06-15T10:29:50.725Z,3.60
2019-06-15T10:30:50.663Z,3.20
2019-06-15T10:31:50.594Z,2.70
2019-06-15T10:32:50.535Z,2.60
2019-06-15T10:33:50.487Z,2.50
2019-06-15T10:34:50.398Z,2.90
2019-06-15T10:35:50.329Z,2.50
2019-06-15T10:36:50.252Z,2.40
2019-06-15T10:37:50.201Z,2.00
2019-06-15T10:38:50.116Z,2.00
2019-06-15T10:39:50.047Z,2.10
2019-06-15T10:40:49.987Z,2.50
2019-06-15T10:41:49.905Z,1.90
2019-06-15T10:42:49.864Z,1.70
2019-06-15T10:43:49.769Z,3.20
2019-06-15T10:44:50.786Z,1.90
2019-06-15T10:45:49.647Z,1.70
2019-06-15T10:46:49.601Z,1.80
2019-06-15T10:47:49.522Z,2.70
2019-06-15T10:48:49.432Z,2.70
2019-06-15T10:49:49.376Z,2.40
2019-06-15T10:50:49.309Z,2.40
2019-06-15T10:51:49.237Z,2.20
2019-06-15T10:52:49.181Z,1.90
2019-06-15T10:53:49.112Z,2.10
2019-06-15T10:54:49.034Z,3.10
2019-06-15T10:55:48.960Z,2.10
2019-06-15T10:56:48.912Z,2.10
2019-06-15T10:57:48.832Z,2.40
2019-06-15T10:58:48.778Z,2.40
2019-06-15T10:59:57.482Z,2.40
2019-06-15T11:00:48.959Z,2.00
2019-06-15T11:01:48.571Z,2.10
2019-06-15T11:02:48.511Z,2.00
2019-06-15T11:03:48.449Z,2.60
2019-06-15T11:04:48.369Z,2.60
2019-06-15T11:05:48.313Z,2.00
2019-06-15T11:06:48.309Z,3.00
2019-06-15T11:07:48.160Z,2.00
2019-06-15T11:08:48.122Z,2.10
2019-06-15T11:09:48.026Z,2.30
2019-06-15T11:10:47.960Z,1.90
2019-06-15T11:11:47.904Z,2.20
2019-06-15T11:12:47.824Z,3.40
2019-06-15T11:13:47.767Z,2.60
2019-06-15T11:14:47.691Z,2.30
2019-06-15T11:15:47.615Z,3.00
2019-06-15T11:16:47.587Z,1.90
2019-06-15T11:17:47.486Z,2.00
2019-06-15T11:18:47.428Z,2.50
2019-06-15T11:19:47.347Z,2.20
2019-06-15T11:20:47.270Z,2.80
2019-06-15T11:21:47.209Z,2.00
2019-06-15T11:22:47.140Z,2.30
2019-06-15T11:23:47.083Z,2.00
2019-06-15T11:24:47.027Z,2.00
2019-06-15T11:25:46.942Z,1.60
2019-06-15T11:26:46.862Z,2.40
2019-06-15T11:27:46.803Z,4.10
2019-06-15T11:28:46.741Z,2.10
2019-06-15T11:29:46.682Z,1.90
2019-06-15T11:30:46.574Z,2.10
2019-06-15T11:31:46.516Z,3.90
2019-06-15T11:32:46.438Z,2.20
2019-06-15T11:33:46.381Z,1.80
2019-06-15T11:34:46.303Z,1.70
2019-06-15T11:35:46.232Z,2.70
2019-06-15T11:36:46.164Z,3.30
2019-06-15T11:37:46.089Z,2.90
2019-06-15T11:38:46.026Z,3.80
2019-06-15T11:39:45.943Z,2.40
2019-06-15T11:40:45.862Z,1.70
2019-06-15T11:41:45.799Z,2.00
2019-06-15T11:42:45.720Z,2.10
2019-06-15T11:43:45.675Z,1.80
2019-06-15T11:44:45.624Z,2.40
2019-06-15T11:45:45.509Z,2.10
2019-06-15T11:46:45.439Z,2.10
2019-06-15T11:47:45.370Z,3.00
2019-06-15T11:48:45.310Z,2.60
2019-06-15T11:49:45.225Z,3.50
2019-06-15T11:50:45.170Z,2.80
2019-06-15T11:51:45.086Z,2.80
2019-06-15T11:52:45.022Z,2.60
2019-06-15T11:53:44.962Z,4.20
2019-06-15T11:54:44.870Z,3.60
2019-06-15T11:55:44.822Z,1.90
2019-06-15T11:56:44.740Z,3.60
2019-06-15T11:57:44.656Z,2.20
2019-06-15T11:58:44.601Z,4.40
2019-06-15T11:59:44.912Z,2.10
2019-06-15T12:00:44.446Z,3.00
2019-06-15T12:01:44.379Z,2.50
2019-06-15T12:02:44.316Z,2.50
2019-06-15T12:03:44.246Z,2.20
2019-06-15T12:04:57.729Z,2.20
2019-06-15T12:05:44.088Z,2.30
2019-06-15T12:06:44.034Z,2.00
2019-06-15T12:07:43.946Z,2.30
2019-06-15T12:08:43.902Z,3.90
2019-06-15T12:09:43.811Z,3.20
2019-06-15T12:10:43.738Z,3.00
2019-06-15T12:11:43.670Z,2.90
2019-06-15T12:12:43.593Z,1.90
2019-06-15T12:13:43.534Z,3.40
2019-06-15T12:14:43.460Z,2.00
2019-06-15T12:15:43.374Z,2.20
2019-06-15T12:16:43.306Z,2.20
2019-06-15T12:17:43.238Z,2.90
2019-06-15T12:18:43.173Z,2.30
2019-06-15T12:19:43.093Z,3.10
2019-06-15T12:20:43.024Z,2.90
2019-06-15T12:21:42.947Z,2.50
2019-06-15T12:22:42.871Z,2.20
2019-06-15T12:23:42.819Z,2.10
2019-06-15T12:24:42.743Z,2.90
2019-06-15T12:25:42.651Z,2.20
2019-06-15T12:26:42.596Z,2.90
2019-06-15T12:27:42.518Z,3.50
2019-06-15T12:28:42.450Z,3.60
2019-06-15T12:29:42.372Z,2.80
2019-06-15T12:30:47.331Z,1.90
2019-06-15T12:31:42.222Z,2.20
2019-06-15T12:32:42.164Z,2.00
2019-06-15T12:33:42.101Z,2.00
2019-06-15T12:34:42.010Z,2.50
2019-06-15T12:35:41.949Z,2.70
2019-06-15T12:36:41.882Z,2.30
2019-06-15T12:37:41.819Z,2.00
2019-06-15T12:38:41.747Z,2.40
2019-06-15T12:39:42.170Z,2.00
2019-06-15T12:40:41.595Z,1.80
2019-06-15T12:41:41.516Z,2.10
2019-06-15T12:42:41.447Z,2.10
2019-06-15T12:43:41.396Z,2.80
2019-06-15T12:44:41.311Z,2.10
2019-06-15T12:45:41.239Z,2.60
2019-06-15T12:46:41.178Z,2.20
2019-06-15T12:47:41.099Z,2.50
2019-06-15T12:48:41.061Z,2.20
2019-06-15T12:49:40.970Z,3.10
2019-06-15T12:50:40.899Z,2.60
2019-06-15T12:51:41.028Z,3.40
2019-06-15T12:52:40.769Z,2.40
2019-06-15T12:53:40.697Z,3.00
2019-06-15T12:54:40.651Z,2.90
2019-06-15T12:55:40.571Z,3.10
2019-06-15T12:56:40.496Z,2.20
2019-06-15T12:57:40.437Z,3.30
2019-06-15T12:58:40.369Z,2.70
2019-06-15T12:59:40.310Z,3.00
2019-06-15T13:00:40.222Z,1.90
2019-06-15T13:01:40.150Z,2.20
2019-06-15T13:02:40.087Z,3.70
2019-06-15T13:03:40.017Z,3.30
2019-06-15T13:04:39.954Z,2.80
2019-06-15T13:05:39.874Z,2.50